Time;durP1;ratioP1;P1;durP2;ratioP2;P2;SDS_P1;SDS_P2;PMS_P1;PMS_P2;Temp;Humidity;BMP_temperature;BMP_pressure;BME280_temperature;BME280_humidity;BME280_pressure;Samples;Min_cycle;Max_cycle;Signal;HPM_P1;HPM_P2
2023/03/14 00:04:42;;;;;;;3.47;3.08;;;;;;;;;;10412552;28;20067;-57
2023/03/14 00:09:40;;;;;;;3.38;3.08;;;;;;;;;;10418824;27;20074;-55
2023/03/14 00:14:38;;;;;;;3.10;2.60;;;;;;;;;;10420806;27;20101;-57
2023/03/14 00:19:38;;;;;;;3.30;2.90;;;;;;;;;;10415452;27;20059;-58
2023/03/14 00:24:36;;;;;;;4.10;3.45;;;;;;;;;;10419540;27;20062;-58
2023/03/14 00:29:34;;;;;;;4.20;3.10;;;;;;;;;;10419344;27;20462;-58
2023/03/14 00:34:32;;;;;;;3.47;3.17;;;;;;;;;;10419157;27;20059;-58
2023/03/14 00:39:32;;;;;;;3.83;2.75;;;;;;;;;;10419052;27;20063;-55
2023/03/14 00:44:31;;;;;;;4.70;3.00;;;;;;;;;;10420359;27;20071;-58
2023/03/14 00:49:29;;;;;;;5.75;3.22;;;;;;;;;;10419435;27;20074;-57
2023/03/14 00:54:28;;;;;;;4.38;3.33;;;;;;;;;;10419571;27;20504;-59
2023/03/14 00:59:27;;;;;;;3.67;2.95;;;;;;;;;;10424884;27;20484;-58
2023/03/14 01:04:25;;;;;;;3.08;2.72;;;;;;;;;;10416965;27;20066;-61
2023/03/14 01:09:25;;;;;;;4.90;3.47;;;;;;;;;;10416049;27;20480;-58
2023/03/14 01:14:23;;;;;;;5.97;2.63;;;;;;;;;;10414414;27;20039;-57
2023/03/14 01:19:23;;;;;;;3.53;3.22;;;;;;;;;;10417045;27;20068;-57
2023/03/14 01:24:21;;;;;;;3.85;2.90;;;;;;;;;;10417505;27;20071;-58
2023/03/14 01:29:19;;;;;;;4.38;2.80;;;;;;;;;;10416779;27;20071;-58
2023/03/14 01:34:18;;;;;;;5.93;3.58;;;;;;;;;;10415230;27;20051;-58
2023/03/14 01:39:18;;;;;;;5.78;3.78;;;;;;;;;;10414725;27;20074;-57
2023/03/14 01:44:16;;;;;;;3.83;3.42;;;;;;;;;;10423239;27;20044;-58
2023/03/14 01:49:17;;;;;;;3.08;2.80;;;;;;;;;;10414707;27;20096;-58
2023/03/14 01:54:25;;;;;;;4.22;2.80;;;;;;;;;;10413942;27;20078;-59
2023/03/14 01:59:24;;;;;;;3.70;3.03;;;;;;;;;;10410116;27;20075;-59
2023/03/14 02:04:22;;;;;;;3.75;3.45;;;;;;;;;;10416085;27;20067;-59
2023/03/14 02:09:21;;;;;;;6.60;3.35;;;;;;;;;;10414351;27;20489;-58
2023/03/14 02:14:28;;;;;;;4.93;3.05;;;;;;;;;;10413985;27;20101;-58
2023/03/14 02:19:55;;;;;;;3.20;2.65;;;;;;;;;;10404208;27;20074;-59
2023/03/14 02:25:07;;;;;;;4.32;3.03;;;;;;;;;;10412840;27;20051;-58
2023/03/14 02:30:09;;;;;;;5.05;2.85;;;;;;;;;;10411917;27;20621;-59
2023/03/14 02:35:09;;;;;;;10.13;5.65;;;;;;;;;;10425243;27;20053;-59
2023/03/14 02:40:08;;;;;;;6.53;5.65;;;;;;;;;;10414731;27;20079;-57
2023/03/14 02:45:41;;;;;;;20.95;15.20;;;;;;;;;;10413831;27;20132;-59
2023/03/14 02:50:41;;;;;;;10.43;7.15;;;;;;;;;;10308983;28;20498;-58
2023/03/14 02:55:40;;;;;;;7.95;6.47;;;;;;;;;;10387624;27;20492;-58
2023/03/14 03:00:42;;;;;;;7.05;6.05;;;;;;;;;;10411716;27;20114;-58
2023/03/14 03:05:44;;;;;;;8.95;5.22;;;;;;;;;;10412484;27;20082;-57
2023/03/14 03:10:42;;;;;;;5.65;2.80;;;;;;;;;;10412179;27;20078;-57
2023/03/14 03:15:40;;;;;;;4.28;3.28;;;;;;;;;;10413932;28;20073;-58
2023/03/14 03:20:39;;;;;;;5.78;3.08;;;;;;;;;;10412757;28;20055;-57
2023/03/14 03:25:38;;;;;;;3.40;3.10;;;;;;;;;;10412957;28;20093;-57
2023/03/14 03:30:40;;;;;;;8.02;6.10;;;;;;;;;;10411928;28;20628;-57
2023/03/14 03:35:45;;;;;;;7.55;6.78;;;;;;;;;;10413349;28;20047;-58
2023/03/14 03:40:47;;;;;;;8.90;4.80;;;;;;;;;;10415747;27;20070;-59
2023/03/14 03:45:46;;;;;;;4.80;2.92;;;;;;;;;;10418677;27;20047;-58
2023/03/14 03:50:45;;;;;;;3.00;2.70;;;;;;;;;;10425873;27;20083;-58
2023/03/14 03:55:48;;;;;;;4.07;3.10;;;;;;;;;;10426702;27;20048;-58
2023/03/14 04:00:46;;;;;;;6.25;3.03;;;;;;;;;;10418255;27;20047;-59
2023/03/14 04:05:44;;;;;;;4.50;3.90;;;;;;;;;;10423877;27;20039;-59
2023/03/14 04:10:44;;;;;;;3.53;3.22;;;;;;;;;;10422428;27;20075;-59
2023/03/14 04:15:54;;;;;;;2.42;2.22;;;;;;;;;;10418144;27;20079;-59
2023/03/14 04:20:56;;;;;;;4.82;3.13;;;;;;;;;;10419895;27;20487;-59
2023/03/14 04:26:00;;;;;;;4.45;2.97;;;;;;;;;;10420558;27;20087;-59
2023/03/14 04:31:08;;;;;;;3.78;3.42;;;;;;;;;;10416920;27;20078;-59
2023/03/14 04:36:07;;;;;;;3.28;2.97;;;;;;;;;;10424745;27;20047;-58
2023/03/14 04:41:07;;;;;;;3.13;2.90;;;;;;;;;;10417244;27;20071;-59
2023/03/14 04:46:07;;;;;;;3.75;3.10;;;;;;;;;;10414582;27;20523;-59
2023/03/14 04:51:06;;;;;;;3.22;2.92;;;;;;;;;;10423298;27;20460;-57
2023/03/14 04:56:05;;;;;;;6.65;3.65;;;;;;;;;;10416684;27;20082;-60
2023/03/14 05:01:10;;;;;;;5.00;4.45;;;;;;;;;;10419561;27;20059;-57
2023/03/14 05:06:29;;;;;;;4.90;3.60;;;;;;;;;;10394960;27;20085;-57
2023/03/14 05:11:39;;;;;;;7.78;4.75;;;;;;;;;;10412703;27;20587;-58
2023/03/14 05:16:57;;;;;;;7.18;4.32;;;;;;;;;;10419834;27;20428;-57
2023/03/14 05:22:18;;;;;;;16.45;9.88;;;;;;;;;;10415328;27;20078;-58
2023/03/14 05:27:45;;;;;;;19.95;8.73;;;;;;;;;;10412761;27;20079;-59
2023/03/14 05:33:23;;;;;;;21.38;14.57;;;;;;;;;;10379314;28;20760;-58
2023/03/14 05:38:33;;;;;;;12.18;9.65;;;;;;;;;;10404545;27;20090;-58
2023/03/14 05:43:49;;;;;;;11.73;8.57;;;;;;;;;;10419758;27;20501;-58
2023/03/14 05:49:12;;;;;;;9.68;5.43;;;;;;;;;;10411880;27;20082;-56
2023/03/14 05:54:21;;;;;;;19.10;12.45;;;;;;;;;;10408997;27;20075;-58
2023/03/14 05:59:44;;;;;;;10.05;6.60;;;;;;;;;;10405905;27;20086;-59
2023/03/14 06:05:04;;;;;;;8.07;3.38;;;;;;;;;;10411045;27;20078;-58
2023/03/14 06:10:02;;;;;;;7.40;3.95;;;;;;;;;;10408059;27;20094;-59
2023/03/14 06:15:01;;;;;;;4.47;3.95;;;;;;;;;;10416765;27;20070;-58
2023/03/14 06:19:59;;;;;;;10.57;6.03;;;;;;;;;;10409532;27;20513;-57
2023/03/14 06:25:01;;;;;;;15.32;7.95;;;;;;;;;;10407765;27;20071;-60
2023/03/14 06:30:00;;;;;;;20.70;11.85;;;;;;;;;;10407831;27;20047;-58
2023/03/14 06:35:00;;;;;;;26.58;12.57;;;;;;;;;;10417575;27;20090;-60
2023/03/14 06:40:05;;;;;;;36.55;17.75;;;;;;;;;;10410649;27;20097;-60
2023/03/14 06:45:28;;;;;;;35.83;20.05;;;;;;;;;;10407547;27;20084;-58
2023/03/14 06:50:28;;;;;;;23.70;13.98;;;;;;;;;;10407215;27;20082;-58
2023/03/14 06:55:30;;;;;;;26.60;16.50;;;;;;;;;;10410903;27;20070;-59
2023/03/14 07:00:28;;;;;;;17.77;11.13;;;;;;;;;;10408316;27;20086;-59
2023/03/14 07:05:28;;;;;;;23.52;9.82;;;;;;;;;;10406535;28;20473;-59
2023/03/14 07:10:26;;;;;;;22.45;11.77;;;;;;;;;;10418954;27;20067;-59
2023/03/14 07:15:26;;;;;;;25.20;12.93;;;;;;;;;;10402879;28;20090;-59
2023/03/14 07:20:29;;;;;;;28.52;11.13;;;;;;;;;;10408803;28;20079;-58
2023/03/14 07:25:31;;;;;;;19.08;11.20;;;;;;;;;;10410724;28;20067;-59
2023/03/14 07:30:31;;;;;;;18.25;10.52;;;;;;;;;;10408543;28;20406;-59
2023/03/14 07:35:31;;;;;;;24.83;11.68;;;;;;;;;;10409297;28;20075;-59
2023/03/14 07:40:30;;;;;;;25.23;12.73;;;;;;;;;;10410118;28;20070;-59
2023/03/14 07:45:28;;;;;;;18.30;11.00;;;;;;;;;;10404124;28;20062;-60
2023/03/14 07:50:28;;;;;;;18.42;13.75;;;;;;;;;;10405785;27;20078;-60
2023/03/14 07:55:26;;;;;;;25.98;10.05;;;;;;;;;;10399521;28;20068;-60
2023/03/14 08:00:25;;;;;;;42.03;26.25;;;;;;;;;;10411695;27;20078;-61
2023/03/14 08:05:23;;;;;;;20.95;9.43;;;;;;;;;;10412248;28;20794;-59
2023/03/14 08:10:23;;;;;;;19.27;9.27;;;;;;;;;;10409868;28;20097;-59
2023/03/14 08:15:21;;;;;;;16.45;9.40;;;;;;;;;;10411088;28;20067;-59
2023/03/14 08:20:19;;;;;;;14.40;7.82;;;;;;;;;;10410203;28;20082;-59
2023/03/14 08:25:17;;;;;;;19.42;8.43;;;;;;;;;;10407654;28;20429;-59
2023/03/14 08:30:18;;;;;;;13.80;7.80;;;;;;;;;;10414176;27;20083;-60
2023/03/14 08:35:16;;;;;;;14.02;7.60;;;;;;;;;;10416326;27;20070;-60
2023/03/14 08:40:15;;;;;;;13.60;8.35;;;;;;;;;;10417181;27;20236;-59
2023/03/14 08:45:14;;;;;;;18.83;8.85;;;;;;;;;;10418154;27;20071;-60
2023/03/14 08:50:14;;;;;;;11.23;9.13;;;;;;;;;;10415270;27;20076;-59
2023/03/14 08:55:13;;;;;;;15.02;10.32;;;;;;;;;;10417228;27;20070;-59
2023/03/14 09:00:14;;;;;;;18.15;9.00;;;;;;;;;;10418385;27;20074;-60
2023/03/14 09:05:14;;;;;;;11.95;8.05;;;;;;;;;;10418423;27;20078;-59
2023/03/14 09:10:12;;;;;;;10.88;6.65;;;;;;;;;;10415642;27;20472;-59
2023/03/14 09:15:11;;;;;;;13.00;5.90;;;;;;;;;;10416285;27;20071;-60
2023/03/14 09:20:10;;;;;;;13.55;6.57;;;;;;;;;;10416963;27;20431;-60
2023/03/14 09:25:10;;;;;;;11.27;5.38;;;;;;;;;;10418965;27;20472;-60
2023/03/14 09:30:09;;;;;;;9.07;5.57;;;;;;;;;;10415759;27;20481;-59
2023/03/14 09:35:07;;;;;;;14.90;5.57;;;;;;;;;;10417233;27;20071;-60
2023/03/14 09:40:11;;;;;;;25.67;6.30;;;;;;;;;;10416611;27;20070;-60
2023/03/14 09:45:15;;;;;;;16.00;5.13;;;;;;;;;;10414133;27;20078;-59
2023/03/14 09:50:14;;;;;;;9.27;4.03;;;;;;;;;;10416608;27;20362;-60
2023/03/14 09:55:14;;;;;;;10.60;7.03;;;;;;;;;;10416202;27;20333;-60
2023/03/14 10:00:15;;;;;;;8.43;4.65;;;;;;;;;;10415940;27;20109;-59
2023/03/14 10:05:15;;;;;;;12.23;4.90;;;;;;;;;;10414225;27;20090;-60
2023/03/14 10:10:15;;;;;;;10.57;5.82;;;;;;;;;;10415391;27;20070;-60
2023/03/14 10:15:18;;;;;;;12.73;5.28;;;;;;;;;;10414564;27;20063;-60
2023/03/14 10:20:32;;;;;;;8.48;5.10;;;;;;;;;;10414867;27;20461;-58
2023/03/14 10:25:31;;;;;;;12.13;4.63;;;;;;;;;;10415811;27;20556;-58
2023/03/14 10:30:34;;;;;;;7.38;5.72;;;;;;;;;;10415244;27;20572;-58
2023/03/14 10:35:34;;;;;;;8.65;4.97;;;;;;;;;;10409844;27;20075;-58
2023/03/14 10:40:34;;;;;;;14.50;4.93;;;;;;;;;;10413216;27;20497;-58
2023/03/14 10:45:35;;;;;;;10.93;5.78;;;;;;;;;;10412111;27;20129;-58
2023/03/14 10:50:33;;;;;;;7.10;3.97;;;;;;;;;;10412355;27;20067;-59
2023/03/14 10:55:40;;;;;;;6.47;4.03;;;;;;;;;;10412834;27;20090;-59
2023/03/14 11:00:40;;;;;;;6.68;3.53;;;;;;;;;;10412323;27;20093;-59
2023/03/14 11:05:41;;;;;;;6.80;3.90;;;;;;;;;;10414255;27;20110;-58
2023/03/14 11:10:42;;;;;;;6.68;4.90;;;;;;;;;;10412282;27;20063;-59
2023/03/14 11:15:46;;;;;;;7.05;3.65;;;;;;;;;;10414424;28;20519;-59
2023/03/14 11:20:47;;;;;;;9.18;4.20;;;;;;;;;;10408900;28;20508;-60
2023/03/14 11:25:50;;;;;;;8.90;3.85;;;;;;;;;;10413182;28;20079;-60
2023/03/14 11:30:52;;;;;;;6.68;3.70;;;;;;;;;;10408024;28;20078;-59
2023/03/14 11:35:54;;;;;;;9.73;2.97;;;;;;;;;;10412595;27;20071;-59
2023/03/14 11:40:52;;;;;;;5.05;3.05;;;;;;;;;;10410990;28;20063;-60
2023/03/14 11:45:52;;;;;;;5.07;3.22;;;;;;;;;;10409490;28;20429;-60
2023/03/14 11:50:52;;;;;;;4.25;3.08;;;;;;;;;;10411294;28;20067;-60
2023/03/14 11:55:51;;;;;;;6.13;3.67;;;;;;;;;;10413315;27;20086;-60
2023/03/14 12:00:50;;;;;;;7.28;3.05;;;;;;;;;;10412294;27;20094;-59
2023/03/14 12:05:55;;;;;;;4.50;2.55;;;;;;;;;;10421274;27;20079;-60
2023/03/14 12:10:55;;;;;;;5.53;3.08;;;;;;;;;;10420593;27;20071;-59
2023/03/14 12:15:58;;;;;;;4.30;2.10;;;;;;;;;;10418876;27;20074;-60
2023/03/14 12:20:59;;;;;;;3.45;2.35;;;;;;;;;;10420842;27;20090;-60
2023/03/14 12:26:14;;;;;;;2.67;1.98;;;;;;;;;;10420223;27;20071;-60
2023/03/14 12:31:31;;;;;;;2.60;2.00;;;;;;;;;;10419159;27;20066;-59
2023/03/14 12:42:04;;;;;;;2.10;1.90;;;;;;;;;;10325810;27;20390;-60
2023/03/14 12:47:15;;;;;;;4.35;2.35;;;;;;;;;;10320246;28;20081;-59
2023/03/14 12:52:15;;;;;;;3.53;1.90;;;;;;;;;;10323521;28;20076;-59
2023/03/14 12:57:25;;;;;;;2.30;1.70;;;;;;;;;;10323793;28;20048;-59
2023/03/14 13:02:25;;;;;;;1.90;1.70;;;;;;;;;;10323443;28;20117;-59
2023/03/14 13:07:33;;;;;;;8.02;1.67;;;;;;;;;;10323961;28;20099;-60
2023/03/14 13:12:38;;;;;;;4.50;1.80;;;;;;;;;;10319020;28;20077;-60
2023/03/14 13:17:37;;;;;;;1.85;1.60;;;;;;;;;;10324456;28;20080;-60
2023/03/14 13:22:38;;;;;;;2.80;1.70;;;;;;;;;;10318471;28;20430;-59
2023/03/14 13:27:38;;;;;;;1.83;1.67;;;;;;;;;;10323001;28;20075;-59
2023/03/14 13:32:42;;;;;;;3.47;2.22;;;;;;;;;;10322749;28;20075;-59
2023/03/14 13:37:40;;;;;;;6.25;1.98;;;;;;;;;;10323341;28;20071;-59
2023/03/14 13:42:40;;;;;;;2.25;1.85;;;;;;;;;;10321866;28;20566;-60
2023/03/14 13:47:39;;;;;;;1.65;1.55;;;;;;;;;;10322046;28;20076;-59
2023/03/14 13:52:38;;;;;;;2.60;2.00;;;;;;;;;;10299279;28;20091;-59
2023/03/14 13:57:48;;;;;;;2.38;1.83;;;;;;;;;;10297248;28;20072;-59
2023/03/14 14:02:48;;;;;;;4.35;1.90;;;;;;;;;;10296664;28;20482;-60
2023/03/14 14:07:46;;;;;;;5.60;3.90;;;;;;;;;;10294634;28;20068;-60
2023/03/14 14:12:49;;;;;;;3.20;2.30;;;;;;;;;;10295207;28;20156;-60
2023/03/14 14:17:51;;;;;;;2.83;2.30;;;;;;;;;;10293759;28;20079;-60
2023/03/14 14:22:50;;;;;;;1.45;1.35;;;;;;;;;;10295338;28;20525;-59
2023/03/14 14:27:49;;;;;;;51.25;37.53;;;;;;;;;;10293832;28;20508;-59
2023/03/14 14:32:48;;;;;;;189.25;125.70;;;;;;;;;;10290808;28;20060;-60
2023/03/14 14:37:48;;;;;;;3.85;3.13;;;;;;;;;;10293769;28;20069;-60
2023/03/14 14:42:47;;;;;;;2.22;1.90;;;;;;;;;;10293424;28;20071;-60
2023/03/14 14:47:52;;;;;;;3.90;3.25;;;;;;;;;;10292283;28;20083;-60
2023/03/14 14:52:56;;;;;;;10.18;4.07;;;;;;;;;;10293374;28;20513;-60
2023/03/14 14:57:56;;;;;;;6.93;2.97;;;;;;;;;;10293323;28;20076;-60
2023/03/14 15:02:55;;;;;;;5.72;3.42;;;;;;;;;;10292474;28;20103;-60
2023/03/14 15:07:55;;;;;;;2.70;2.13;;;;;;;;;;10293785;28;20072;-60
2023/03/14 15:12:53;;;;;;;3.45;2.30;;;;;;;;;;10290735;28;20064;-60
2023/03/14 15:17:52;;;;;;;5.78;2.90;;;;;;;;;;10287895;28;20056;-60
2023/03/14 15:22:50;;;;;;;6.47;5.25;;;;;;;;;;10290513;28;20079;-59
2023/03/14 15:27:50;;;;;;;37.25;24.63;;;;;;;;;;10290234;28;20075;-59
2023/03/14 15:32:48;;;;;;;23.15;15.07;;;;;;;;;;10290095;28;20037;-60
2023/03/14 15:37:46;;;;;;;12.80;5.97;;;;;;;;;;10289141;28;20084;-60
2023/03/14 15:42:44;;;;;;;7.47;6.15;;;;;;;;;;10293490;28;20083;-58
2023/03/14 15:47:44;;;;;;;13.43;7.90;;;;;;;;;;10290044;28;20060;-59
2023/03/14 15:52:42;;;;;;;6.95;3.70;;;;;;;;;;10290607;28;20074;-59
2023/03/14 15:57:40;;;;;;;4.38;3.53;;;;;;;;;;10290000;28;20345;-59
2023/03/14 16:02:41;;;;;;;5.80;3.85;;;;;;;;;;10285386;28;20531;-59
2023/03/14 16:07:40;;;;;;;8.57;3.75;;;;;;;;;;10286184;28;20077;-59
2023/03/14 16:12:39;;;;;;;4.53;2.60;;;;;;;;;;10290173;28;20193;-59
2023/03/14 16:17:39;;;;;;;3.28;2.75;;;;;;;;;;10289346;28;20095;-59
2023/03/14 16:22:38;;;;;;;3.83;3.35;;;;;;;;;;10287361;28;20574;-60
2023/03/14 16:27:37;;;;;;;4.60;2.60;;;;;;;;;;10289754;28;20061;-59
2023/03/14 16:32:36;;;;;;;6.38;3.45;;;;;;;;;;10289802;28;20533;-59
2023/03/14 16:37:34;;;;;;;4.32;2.75;;;;;;;;;;10288562;28;20076;-59
2023/03/14 16:42:33;;;;;;;3.35;3.00;;;;;;;;;;10289268;28;20094;-59
2023/03/14 16:47:33;;;;;;;4.95;3.85;;;;;;;;;;10287640;28;20458;-60
2023/03/14 16:52:31;;;;;;;4.25;2.20;;;;;;;;;;10289190;28;20509;-59
2023/03/14 16:57:30;;;;;;;5.28;4.32;;;;;;;;;;10290459;28;20152;-59
2023/03/14 17:02:28;;;;;;;5.15;3.03;;;;;;;;;;10287763;28;20079;-59
2023/03/14 17:07:27;;;;;;;8.27;4.28;;;;;;;;;;10289675;28;20072;-59
2023/03/14 17:12:25;;;;;;;6.60;4.85;;;;;;;;;;10289481;28;20076;-59
2023/03/14 17:17:24;;;;;;;7.93;5.22;;;;;;;;;;10288919;28;20079;-58
2023/03/14 17:22:22;;;;;;;8.85;2.92;;;;;;;;;;10283689;28;20549;-59
2023/03/14 17:27:26;;;;;;;5.32;3.38;;;;;;;;;;10292737;28;20552;-59
2023/03/14 17:32:25;;;;;;;4.57;2.88;;;;;;;;;;10296346;28;20470;-59
2023/03/14 17:37:23;;;;;;;5.93;4.47;;;;;;;;;;10296098;28;20533;-59
2023/03/14 17:42:21;;;;;;;4.53;3.65;;;;;;;;;;10296040;28;20458;-60
2023/03/14 17:47:21;;;;;;;6.53;3.22;;;;;;;;;;10294902;28;20079;-59
2023/03/14 17:52:19;;;;;;;8.90;2.72;;;;;;;;;;10294888;28;20165;-59
2023/03/14 17:57:17;;;;;;;3.42;2.55;;;;;;;;;;10293587;28;20076;-59
2023/03/14 18:02:15;;;;;;;8.20;3.80;;;;;;;;;;10295486;28;20068;-59
2023/03/14 18:07:15;;;;;;;6.80;4.15;;;;;;;;;;10290708;28;20124;-59
2023/03/14 18:12:14;;;;;;;9.23;4.32;;;;;;;;;;10291890;28;20075;-59
2023/03/14 18:17:12;;;;;;;5.93;3.55;;;;;;;;;;10294678;28;20076;-60
2023/03/14 18:22:10;;;;;;;4.03;3.50;;;;;;;;;;10289404;28;20075;-59
2023/03/14 18:27:10;;;;;;;6.72;3.45;;;;;;;;;;10291202;28;20095;-58
2023/03/14 18:32:08;;;;;;;4.95;3.03;;;;;;;;;;10291359;28;20072;-59
2023/03/14 18:37:07;;;;;;;2.97;2.67;;;;;;;;;;10288439;28;20072;-58
2023/03/14 18:42:05;;;;;;;4.60;3.60;;;;;;;;;;10286602;28;20541;-59
2023/03/14 18:47:05;;;;;;;6.30;3.63;;;;;;;;;;10292656;28;20076;-60
2023/03/14 18:52:03;;;;;;;5.57;2.60;;;;;;;;;;10283346;28;20076;-59
2023/03/14 18:57:01;;;;;;;4.25;2.40;;;;;;;;;;10288715;28;20087;-59
2023/03/14 19:02:00;;;;;;;2.85;2.15;;;;;;;;;;10286945;28;20087;-59
2023/03/14 19:07:00;;;;;;;4.38;1.90;;;;;;;;;;10287211;28;20068;-60
2023/03/14 19:11:59;;;;;;;16.25;9.50;;;;;;;;;;10286238;28;20065;-59
2023/03/14 19:16:57;;;;;;;7.60;3.35;;;;;;;;;;10290676;28;20079;-58
2023/03/14 19:21:55;;;;;;;2.63;2.42;;;;;;;;;;10279575;28;20064;-59
2023/03/14 19:26:54;;;;;;;3.05;2.00;;;;;;;;;;10289555;28;20064;-59
2023/03/14 19:31:53;;;;;;;3.75;2.45;;;;;;;;;;10287959;28;20330;-59
2023/03/14 19:36:52;;;;;;;3.65;2.28;;;;;;;;;;10282901;28;20558;-58
2023/03/14 19:41:56;;;;;;;3.30;2.10;;;;;;;;;;10286309;28;20091;-60
2023/03/14 19:46:56;;;;;;;2.83;2.53;;;;;;;;;;10286495;28;20079;-60
2023/03/14 19:51:54;;;;;;;3.30;2.03;;;;;;;;;;10288202;28;20075;-59
2023/03/14 19:56:52;;;;;;;3.28;1.98;;;;;;;;;;10286776;28;20376;-59
2023/03/14 20:01:51;;;;;;;3.35;2.35;;;;;;;;;;10288242;28;20083;-60
2023/03/14 20:06:52;;;;;;;3.78;2.65;;;;;;;;;;10288535;28;20048;-60
2023/03/14 20:11:50;;;;;;;3.38;2.75;;;;;;;;;;10287374;28;20068;-60
2023/03/14 20:16:48;;;;;;;8.65;2.53;;;;;;;;;;10289259;28;20092;-60
2023/03/14 20:21:46;;;;;;;3.75;2.72;;;;;;;;;;10290210;28;20115;-59
2023/03/14 20:26:46;;;;;;;3.30;2.80;;;;;;;;;;10288178;28;20064;-59
2023/03/14 20:31:44;;;;;;;2.58;2.22;;;;;;;;;;10288644;28;20073;-60
2023/03/14 20:36:46;;;;;;;10.00;8.85;;;;;;;;;;10283649;28;20073;-58
2023/03/14 20:41:46;;;;;;;14.93;13.43;;;;;;;;;;10281152;28;20372;-59
2023/03/14 20:46:44;;;;;;;18.70;14.68;;;;;;;;;;10290367;28;20084;-58
2023/03/14 20:51:42;;;;;;;13.63;11.07;;;;;;;;;;10282390;28;20068;-60
2023/03/14 20:56:41;;;;;;;17.58;13.23;;;;;;;;;;10287996;28;20076;-59
2023/03/14 21:01:40;;;;;;;5.82;3.80;;;;;;;;;;10290269;28;20084;-59
2023/03/14 21:06:38;;;;;;;3.75;2.90;;;;;;;;;;10293923;28;20079;-59
2023/03/14 21:11:37;;;;;;;4.78;2.58;;;;;;;;;;10296091;28;20485;-60
2023/03/14 21:16:35;;;;;;;4.97;2.58;;;;;;;;;;10290866;28;20170;-59
2023/03/14 21:21:35;;;;;;;3.00;2.60;;;;;;;;;;10297330;28;20087;-59
2023/03/14 21:26:33;;;;;;;4.20;2.38;;;;;;;;;;10296632;28;20102;-59
2023/03/14 21:31:31;;;;;;;2.67;2.08;;;;;;;;;;10296409;28;20076;-59
2023/03/14 21:36:30;;;;;;;2.55;2.33;;;;;;;;;;10295839;28;20087;-59
2023/03/14 21:41:30;;;;;;;3.33;2.00;;;;;;;;;;10295163;28;20171;-58
2023/03/14 21:46:28;;;;;;;2.75;2.40;;;;;;;;;;10295184;28;20068;-60
2023/03/14 21:51:30;;;;;;;5.18;2.97;;;;;;;;;;10295328;28;20064;-59
2023/03/14 21:56:28;;;;;;;2.67;1.92;;;;;;;;;;10295472;28;20083;-59
2023/03/14 22:01:27;;;;;;;3.72;2.10;;;;;;;;;;10296198;28;20135;-60
2023/03/14 22:06:26;;;;;;;2.55;2.20;;;;;;;;;;10289830;28;20509;-58
2023/03/14 22:11:25;;;;;;;3.80;2.00;;;;;;;;;;10295011;28;20064;-58
2023/03/14 22:16:23;;;;;;;8.55;3.00;;;;;;;;;;10294528;28;20069;-58
2023/03/14 22:21:22;;;;;;;3.75;2.38;;;;;;;;;;10290214;28;20087;-58
2023/03/14 22:26:21;;;;;;;3.85;2.65;;;;;;;;;;10290346;28;20379;-59
2023/03/14 22:31:19;;;;;;;2.30;2.10;;;;;;;;;;10293138;28;20076;-60
2023/03/14 22:36:17;;;;;;;4.82;2.33;;;;;;;;;;10293540;28;20487;-58
2023/03/14 22:41:16;;;;;;;3.63;2.00;;;;;;;;;;10293160;28;20085;-58
2023/03/14 22:46:15;;;;;;;4.40;2.53;;;;;;;;;;10294610;28;20091;-58
2023/03/14 22:51:13;;;;;;;5.28;2.78;;;;;;;;;;10292668;28;20498;-58
2023/03/14 22:56:11;;;;;;;2.58;2.15;;;;;;;;;;10291779;28;20077;-58
2023/03/14 23:01:11;;;;;;;2.50;1.80;;;;;;;;;;10293280;28;20596;-58
2023/03/14 23:06:10;;;;;;;3.42;2.22;;;;;;;;;;10292601;28;20069;-60
2023/03/14 23:11:08;;;;;;;4.10;2.60;;;;;;;;;;10292766;28;20075;-57
2023/03/14 23:16:07;;;;;;;2.65;2.05;;;;;;;;;;10287733;28;20099;-59
2023/03/14 23:21:08;;;;;;;4.15;2.45;;;;;;;;;;10289275;28;20065;-58
2023/03/14 23:26:07;;;;;;;4.32;3.15;;;;;;;;;;10290584;28;20079;-59
2023/03/14 23:31:06;;;;;;;7.65;4.82;;;;;;;;;;10292697;28;20068;-58
2023/03/14 23:36:04;;;;;;;5.75;4.00;;;;;;;;;;10290121;28;20112;-59
2023/03/14 23:41:04;;;;;;;7.15;4.03;;;;;;;;;;10287743;28;20514;-58
2023/03/14 23:46:02;;;;;;;11.48;6.63;;;;;;;;;;10287742;28;20060;-58
2023/03/14 23:51:01;;;;;;;13.15;6.43;;;;;;;;;;10290421;28;20087;-60
2023/03/14 23:56:00;;;;;;;17.58;8.07;;;;;;;;;;10289975;28;20067;-59
